Millville, Iowa
Current Conditions -  °F | °C
As of 5:55 PM on Friday 19 Dec 2014 (Local Time) from KPDC Reporting Station
Overcast Overcast  
Wind Chill: 29°   Ceiling: 4400
Heat Index: 29°   Visibility: 10mi
Dew Point: 21°   Wind: 3mph
Humidity: 72%   Direction: 110°ESE
Pressure: 30.27"   Gusts: NA
Location:  42.743°N, 91.1647°W
Report Text: KPDC 192355Z AUTO 11003KT 10SM OVC044 M02/M06 A3027 RMK AO2 T10161061 11013 21020
Loading
Personal Weather Stations






























Interactive Weather Map New forecast layout! Learn more

10-Day Weather Forecast

Advertisements
Track Severe Weather on mobile